createdAt,value
2019-03-29T00:01:24.334Z,53.42
2019-03-29T00:03:55.224Z,49.42
2019-03-29T00:06:26.076Z,55.25
2019-03-29T00:09:00.271Z,54.88
2019-03-29T00:11:32.336Z,54.55
2019-03-29T00:14:03.785Z,65.70
2019-03-29T00:16:34.218Z,51.08
2019-03-29T00:19:07.194Z,42.48
2019-03-29T00:21:39.191Z,50.58
2019-03-29T00:24:14.951Z,40.43
2019-03-29T00:26:48.719Z,62.93
2019-03-29T00:29:20.955Z,53.78
2019-03-29T00:31:52.685Z,45.10
2019-03-29T00:34:24.596Z,61.10
2019-03-29T00:36:55.022Z,74.42
2019-03-29T00:39:27.903Z,66.87
2019-03-29T00:41:59.952Z,79.92
2019-03-29T00:44:30.447Z,67.47
2019-03-29T00:47:01.235Z,70.67
2019-03-29T00:49:34.697Z,70.97
2019-03-29T00:52:09.225Z,73.10
2019-03-29T00:54:43.664Z,63.05
2019-03-29T00:59:44.617Z,60.40
2019-03-29T01:02:15.756Z,56.13
2019-03-29T01:04:46.494Z,61.30
2019-03-29T01:07:17.182Z,60.40
2019-03-29T01:09:51.748Z,61.18
2019-03-29T01:12:24.016Z,61.20
2019-03-29T01:17:28.454Z,52.23
2019-03-29T01:20:00.000Z,45.35
2019-03-29T01:22:32.566Z,46.80
2019-03-29T01:25:03.618Z,50.43
2019-03-29T01:27:34.659Z,53.33
2019-03-29T01:30:07.624Z,48.38
2019-03-29T01:32:38.092Z,63.33
2019-03-29T01:35:09.560Z,54.50
2019-03-29T01:37:40.948Z,67.87
2019-03-29T01:40:12.209Z,74.65
2019-03-29T01:42:42.530Z,82.20
2019-03-29T01:45:14.244Z,99.75
2019-03-29T01:47:47.254Z,92.78
2019-03-29T01:50:18.107Z,90.47
2019-03-29T01:52:49.247Z,79.65
2019-03-29T01:55:23.308Z,73.33
2019-03-29T01:57:54.319Z,64.70
2019-03-29T02:00:32.118Z,65.45
2019-03-29T02:03:03.196Z,68.00
2019-03-29T02:05:36.019Z,63.23
2019-03-29T02:08:06.649Z,64.62
2019-03-29T02:10:38.506Z,61.90
2019-03-29T02:13:08.930Z,64.75
2019-03-29T02:15:41.525Z,63.68
2019-03-29T02:18:15.285Z,68.33
2019-03-29T02:20:45.816Z,70.70
2019-03-29T02:23:17.290Z,59.30
2019-03-29T02:25:48.743Z,70.17
2019-03-29T02:28:19.785Z,65.47
2019-03-29T02:30:52.357Z,54.67
2019-03-29T02:33:24.858Z,58.17
2019-03-29T02:35:57.686Z,55.15
2019-03-29T02:38:28.135Z,58.90
2019-03-29T02:40:58.773Z,65.50
2019-03-29T02:43:30.420Z,58.73
2019-03-29T02:46:01.254Z,53.65
2019-03-29T02:48:32.191Z,66.65
2019-03-29T02:51:04.528Z,63.25
2019-03-29T02:53:37.445Z,65.55
2019-03-29T02:56:08.822Z,66.07
2019-03-29T02:58:40.346Z,66.20
2019-03-29T03:01:11.898Z,68.97
2019-03-29T03:03:42.429Z,73.40
2019-03-29T03:06:16.932Z,67.27
2019-03-29T03:08:48.021Z,66.87
2019-03-29T03:11:20.590Z,69.80
2019-03-29T03:13:51.601Z,66.77
2019-03-29T03:16:22.235Z,73.12
2019-03-29T03:18:53.387Z,73.55
2019-03-29T03:21:24.219Z,77.58
2019-03-29T03:23:54.958Z,86.05
2019-03-29T03:26:25.986Z,75.57
2019-03-29T03:28:57.841Z,75.40
2019-03-29T03:31:29.763Z,79.35
2019-03-29T03:34:00.144Z,82.60
2019-03-29T03:36:30.825Z,95.10
2019-03-29T03:39:01.587Z,97.82
2019-03-29T03:41:33.137Z,87.57
2019-03-29T03:44:03.772Z,99.32
2019-03-29T03:46:35.821Z,103.17
2019-03-29T03:49:07.175Z,90.83
2019-03-29T03:51:38.638Z,96.75
2019-03-29T03:54:09.686Z,88.37
2019-03-29T03:56:40.706Z,95.10
2019-03-29T03:59:12.673Z,90.38
2019-03-29T04:01:46.163Z,95.20
2019-03-29T04:04:16.493Z,98.67
2019-03-29T04:06:50.498Z,65.40
2019-03-29T04:09:20.814Z,87.08
2019-03-29T04:11:52.072Z,87.02
2019-03-29T04:14:23.404Z,89.87
2019-03-29T04:16:54.249Z,99.80
2019-03-29T04:19:26.413Z,101.97
2019-03-29T04:21:58.583Z,82.08
2019-03-29T04:24:30.386Z,80.00
2019-03-29T04:27:02.308Z,80.83
2019-03-29T04:29:33.855Z,72.22
2019-03-29T04:32:09.181Z,59.05
2019-03-29T04:34:40.460Z,58.75
2019-03-29T04:37:13.347Z,50.92
2019-03-29T04:39:44.457Z,59.08
2019-03-29T04:42:15.598Z,46.65
2019-03-29T04:44:47.396Z,52.35
2019-03-29T04:47:19.242Z,44.33
2019-03-29T04:49:51.185Z,51.50
2019-03-29T04:52:23.237Z,44.67
2019-03-29T04:54:55.597Z,49.20
2019-03-29T04:57:26.237Z,57.38
2019-03-29T04:59:59.428Z,54.77
2019-03-29T05:02:30.453Z,52.67
2019-03-29T05:05:04.823Z,58.78
2019-03-29T05:07:37.172Z,49.05
2019-03-29T05:10:20.269Z,56.50
2019-03-29T05:12:42.622Z,44.05
2019-03-29T05:15:15.092Z,28.62
2019-03-29T05:17:48.556Z,49.75
2019-03-29T05:20:19.496Z,42.95
2019-03-29T05:22:50.266Z,44.33
2019-03-29T05:25:23.037Z,38.67
2019-03-29T05:27:54.830Z,42.45
2019-03-29T05:30:25.128Z,40.95
2019-03-29T05:32:57.485Z,44.60
2019-03-29T05:35:28.195Z,41.98
2019-03-29T05:38:00.045Z,41.58
2019-03-29T05:40:35.134Z,33.15
2019-03-29T05:43:08.313Z,31.27
2019-03-29T05:45:38.748Z,34.98
2019-03-29T05:48:12.634Z,31.93
2019-03-29T05:50:44.169Z,34.48
2019-03-29T05:53:16.334Z,28.02
2019-03-29T05:55:48.475Z,36.70
2019-03-29T05:58:18.949Z,29.07
2019-03-29T06:00:50.495Z,26.65
2019-03-29T06:03:22.088Z,25.65
2019-03-29T06:05:52.878Z,32.55
2019-03-29T06:08:25.875Z,28.05
2019-03-29T06:11:00.099Z,30.97
2019-03-29T06:13:31.742Z,27.52
2019-03-29T06:16:06.049Z,26.05
2019-03-29T06:18:35.253Z,37.58
2019-03-29T06:21:07.619Z,41.85
2019-03-29T06:23:38.094Z,23.22
2019-03-29T06:26:09.464Z,26.80
2019-03-29T06:28:40.634Z,19.55
2019-03-29T06:31:12.900Z,27.30
2019-03-29T06:33:44.860Z,25.57
2019-03-29T06:36:16.999Z,38.48
2019-03-29T06:38:48.994Z,19.12
2019-03-29T06:41:20.548Z,28.05
2019-03-29T06:43:51.789Z,27.80
2019-03-29T06:46:23.236Z,34.00
2019-03-29T06:48:55.401Z,26.97
2019-03-29T06:51:27.650Z,28.23
2019-03-29T06:53:58.655Z,29.18
2019-03-29T06:56:29.948Z,32.60
2019-03-29T06:59:01.213Z,27.85
2019-03-29T07:01:33.263Z,28.12
2019-03-29T07:04:03.587Z,29.60
2019-03-29T07:06:34.317Z,29.63
2019-03-29T07:09:06.791Z,31.27
2019-03-29T07:11:41.309Z,25.50
2019-03-29T07:14:11.946Z,28.83
2019-03-29T07:16:44.112Z,30.92
2019-03-29T07:19:16.073Z,35.30
2019-03-29T07:21:48.135Z,24.77
2019-03-29T07:24:21.679Z,33.63
2019-03-29T07:26:52.977Z,25.12
2019-03-29T07:29:25.246Z,23.98
2019-03-29T07:31:55.975Z,23.22
2019-03-29T07:34:27.414Z,25.55
2019-03-29T07:36:57.764Z,29.00
2019-03-29T07:39:28.480Z,26.20
2019-03-29T07:41:59.526Z,32.13
2019-03-29T07:44:30.048Z,27.67
2019-03-29T07:47:00.885Z,30.20
2019-03-29T07:49:31.616Z,36.10
2019-03-29T07:52:03.785Z,23.35
2019-03-29T07:54:34.514Z,28.10
2019-03-29T07:57:06.271Z,33.15
2019-03-29T07:59:37.117Z,30.82
2019-03-29T08:02:08.866Z,27.37
2019-03-29T08:04:42.145Z,23.47
2019-03-29T08:07:26.727Z,26.33
2019-03-29T08:09:48.231Z,26.33
2019-03-29T08:12:18.800Z,25.48
2019-03-29T08:14:52.179Z,35.95
2019-03-29T08:17:24.847Z,34.08
2019-03-29T08:20:24.558Z,19.57
2019-03-29T08:22:28.836Z,22.15
2019-03-29T08:24:59.524Z,17.52
2019-03-29T08:27:31.734Z,27.37
2019-03-29T08:30:02.078Z,20.48
2019-03-29T08:32:32.809Z,29.35
2019-03-29T08:35:03.883Z,34.50
2019-03-29T08:37:34.686Z,27.42
2019-03-29T08:40:06.648Z,25.45
2019-03-29T08:42:37.381Z,23.60
2019-03-29T08:45:08.954Z,23.92
2019-03-29T08:47:39.255Z,22.00
2019-03-29T08:50:09.898Z,36.88
2019-03-29T08:52:42.260Z,45.52
2019-03-29T08:55:13.370Z,27.20
2019-03-29T08:57:44.397Z,18.85
2019-03-29T09:00:19.751Z,20.35
2019-03-29T09:02:52.351Z,23.60
2019-03-29T09:05:23.100Z,18.67
2019-03-29T09:07:53.612Z,25.02
2019-03-29T09:10:26.795Z,14.30
2019-03-29T09:12:57.028Z,16.27
2019-03-29T09:15:28.248Z,21.33
2019-03-29T09:18:00.087Z,16.82
2019-03-29T09:20:34.651Z,18.45
2019-03-29T09:23:10.249Z,18.12
2019-03-29T09:28:12.381Z,13.45
2019-03-29T09:30:43.210Z,19.80
2019-03-29T09:33:13.839Z,21.00
2019-03-29T09:35:49.502Z,15.32
2019-03-29T09:38:21.040Z,19.87
2019-03-29T09:40:58.789Z,17.55
2019-03-29T09:43:26.553Z,24.00
2019-03-29T09:45:56.722Z,17.77
2019-03-29T09:48:27.662Z,14.55
2019-03-29T09:50:59.143Z,14.83
2019-03-29T09:53:30.040Z,13.48
2019-03-29T09:56:01.069Z,16.30
2019-03-29T09:58:32.227Z,17.62
2019-03-29T10:01:04.183Z,15.72
2019-03-29T10:03:36.062Z,29.72
2019-03-29T10:06:08.534Z,14.58
2019-03-29T10:08:42.397Z,17.40
2019-03-29T10:11:14.177Z,22.93
2019-03-29T10:13:47.677Z,11.27
2019-03-29T10:16:19.024Z,16.62
2019-03-29T10:18:50.104Z,22.67
2019-03-29T10:21:23.176Z,14.80
2019-03-29T10:23:57.574Z,16.17
2019-03-29T10:26:28.010Z,18.65
2019-03-29T10:28:58.837Z,18.10
2019-03-29T10:31:32.837Z,17.73
2019-03-29T10:34:03.581Z,16.02
2019-03-29T10:36:34.306Z,14.58
2019-03-29T10:39:11.844Z,13.65
2019-03-29T10:41:42.228Z,17.23
2019-03-29T10:44:12.858Z,18.17
2019-03-29T10:46:43.983Z,22.32
2019-03-29T10:49:14.930Z,13.05
2019-03-29T10:51:45.673Z,14.83
2019-03-29T10:54:17.518Z,14.53
2019-03-29T10:56:48.268Z,14.87
2019-03-29T10:59:27.307Z,20.17
2019-03-29T11:01:53.409Z,12.65
2019-03-29T11:04:23.919Z,45.58
2019-03-29T11:06:54.671Z,17.45
2019-03-29T11:09:25.625Z,12.47
2019-03-29T11:11:56.083Z,27.32
2019-03-29T11:14:27.183Z,19.52
2019-03-29T11:16:58.153Z,16.90
2019-03-29T11:19:30.480Z,12.85
2019-03-29T11:22:01.618Z,14.80
2019-03-29T11:24:42.902Z,15.03
2019-03-29T11:33:18.975Z,11.50
2019-03-29T11:35:51.703Z,12.03
2019-03-29T11:38:23.988Z,13.90
2019-03-29T11:40:56.048Z,12.65
2019-03-29T11:43:27.535Z,14.90
2019-03-29T11:45:59.175Z,21.20
2019-03-29T11:48:29.971Z,10.10
2019-03-29T11:51:01.706Z,12.80
2019-03-29T11:53:32.348Z,8.73
2019-03-29T11:56:02.858Z,25.35
2019-03-29T11:58:36.899Z,12.63
2019-03-29T12:01:11.137Z,13.18
2019-03-29T12:06:11.333Z,12.10
2019-03-29T12:08:41.953Z,7.55
2019-03-29T12:11:13.155Z,12.82
2019-03-29T12:13:45.973Z,16.15
2019-03-29T12:16:16.302Z,11.85
2019-03-29T12:18:48.573Z,13.90
2019-03-29T12:21:26.532Z,24.52
2019-03-29T12:23:57.634Z,16.90
2019-03-29T12:26:31.211Z,13.58
2019-03-29T12:29:02.992Z,14.50
2019-03-29T12:31:33.701Z,15.30
2019-03-29T12:34:08.060Z,14.85
2019-03-29T12:36:42.603Z,18.92
2019-03-29T12:39:14.197Z,22.10
2019-03-29T12:41:44.534Z,12.13
2019-03-29T12:44:15.936Z,17.45
2019-03-29T12:46:49.566Z,13.28
2019-03-29T12:49:20.197Z,11.08
2019-03-29T12:51:50.825Z,10.30
2019-03-29T12:54:21.624Z,14.47
2019-03-29T12:56:53.944Z,18.37
2019-03-29T12:59:26.508Z,18.00
2019-03-29T13:01:57.240Z,14.98
2019-03-29T13:04:27.969Z,10.35
2019-03-29T13:06:59.622Z,16.45
2019-03-29T13:09:29.857Z,13.80
2019-03-29T13:12:00.582Z,15.05
2019-03-29T13:14:32.640Z,15.63
2019-03-29T13:17:03.186Z,17.65
2019-03-29T13:19:34.004Z,12.82
2019-03-29T13:22:06.787Z,17.35
2019-03-29T13:24:37.418Z,10.65
2019-03-29T13:27:08.150Z,16.37
2019-03-29T13:29:38.777Z,9.23
2019-03-29T13:32:09.410Z,15.48
2019-03-29T13:34:41.166Z,15.18
2019-03-29T13:37:12.202Z,15.48
2019-03-29T13:39:42.628Z,13.72
2019-03-29T13:42:13.265Z,18.32
2019-03-29T13:44:46.753Z,22.32
2019-03-29T13:47:18.268Z,24.95
2019-03-29T13:49:48.843Z,19.17
2019-03-29T13:52:22.653Z,15.60
2019-03-29T13:54:54.398Z,19.75
2019-03-29T13:57:26.755Z,14.68
2019-03-29T13:59:57.364Z,17.07
2019-03-29T14:02:28.229Z,12.70
2019-03-29T14:05:00.812Z,15.72
2019-03-29T14:07:31.236Z,22.22
2019-03-29T14:10:02.582Z,23.92
2019-03-29T14:12:34.650Z,21.00
2019-03-29T14:15:09.338Z,41.75
2019-03-29T14:17:39.898Z,20.72
2019-03-29T14:20:11.965Z,25.15
2019-03-29T14:22:42.593Z,27.05
2019-03-29T14:25:14.041Z,19.23
2019-03-29T14:27:45.377Z,14.98
2019-03-29T14:30:16.633Z,19.60
2019-03-29T14:32:46.958Z,25.57
2019-03-29T14:35:17.792Z,13.25
2019-03-29T14:37:48.525Z,17.15
2019-03-29T14:40:19.951Z,17.25
2019-03-29T14:42:50.522Z,16.12
2019-03-29T14:45:21.341Z,15.18
2019-03-29T14:47:52.684Z,14.13
2019-03-29T14:50:23.730Z,13.93
2019-03-29T14:52:54.565Z,16.97
2019-03-29T14:55:27.730Z,11.75
2019-03-29T14:57:58.377Z,17.40
2019-03-29T15:00:39.545Z,20.55
2019-03-29T15:03:11.618Z,19.15
2019-03-29T15:05:41.944Z,15.90
2019-03-29T15:08:12.981Z,17.65
2019-03-29T15:10:46.000Z,16.52
2019-03-29T15:13:16.404Z,16.30
2019-03-29T15:15:47.233Z,14.95
2019-03-29T15:18:17.869Z,17.02
2019-03-29T15:20:53.733Z,14.87
2019-03-29T15:23:20.867Z,12.90
2019-03-29T15:25:51.569Z,17.52
2019-03-29T15:28:22.530Z,19.48
2019-03-29T15:30:54.804Z,19.25
2019-03-29T15:33:25.533Z,20.35
2019-03-29T15:35:58.926Z,23.18
2019-03-29T15:38:30.965Z,29.55
2019-03-29T15:41:01.529Z,27.32
2019-03-29T15:43:32.354Z,22.13
2019-03-29T15:46:02.983Z,37.55
2019-03-29T15:48:33.619Z,30.85
2019-03-29T15:51:05.525Z,38.50
2019-03-29T15:53:40.046Z,30.48
2019-03-29T15:56:14.316Z,28.25
2019-03-29T15:58:46.221Z,27.58
2019-03-29T16:01:18.796Z,36.77
2019-03-29T16:03:50.029Z,29.20
2019-03-29T16:06:22.472Z,31.87
2019-03-29T16:08:53.099Z,32.55
2019-03-29T16:11:25.471Z,36.03
2019-03-29T16:13:58.045Z,34.90
2019-03-29T16:16:28.518Z,50.43
2019-03-29T16:19:00.224Z,39.23
2019-03-29T16:21:30.620Z,35.83
2019-03-29T16:24:01.285Z,29.23
2019-03-29T16:26:32.812Z,25.43
2019-03-29T16:29:04.190Z,30.12
2019-03-29T16:31:36.342Z,25.10
2019-03-29T16:34:10.069Z,33.63
2019-03-29T16:36:41.692Z,30.05
2019-03-29T16:39:12.739Z,29.02
2019-03-29T16:41:43.982Z,32.40
2019-03-29T16:44:14.409Z,35.38
2019-03-29T16:46:45.467Z,29.23
2019-03-29T16:49:17.718Z,24.05
2019-03-29T16:51:48.962Z,32.55
2019-03-29T16:54:21.910Z,30.60
2019-03-29T16:56:53.077Z,29.47
2019-03-29T16:59:24.024Z,29.25
2019-03-29T17:01:54.865Z,35.03
2019-03-29T17:04:26.633Z,35.45
2019-03-29T17:07:00.715Z,36.13
2019-03-29T17:09:33.409Z,40.00
2019-03-29T17:12:04.549Z,57.78
2019-03-29T17:14:36.802Z,75.28
2019-03-29T17:17:08.476Z,66.07
2019-03-29T17:19:39.310Z,54.90
2019-03-29T17:22:11.479Z,36.55
2019-03-29T17:24:56.069Z,37.53
2019-03-29T17:27:14.785Z,29.75
2019-03-29T17:29:45.423Z,38.73
2019-03-29T17:32:17.066Z,32.33
2019-03-29T17:34:49.594Z,25.68
2019-03-29T17:37:19.903Z,25.68
2019-03-29T17:39:50.904Z,27.65
2019-03-29T17:42:24.488Z,31.33
2019-03-29T17:44:58.866Z,29.50
2019-03-29T17:47:27.609Z,25.43
2019-03-29T17:49:59.141Z,29.18
2019-03-29T17:52:32.551Z,30.80
2019-03-29T17:55:03.493Z,31.40
2019-03-29T17:57:33.815Z,31.23
2019-03-29T18:00:07.314Z,24.43
2019-03-29T18:02:38.294Z,30.02
2019-03-29T18:05:09.188Z,28.10
2019-03-29T18:07:40.121Z,34.00
2019-03-29T18:10:11.789Z,34.35
2019-03-29T18:12:45.899Z,35.48
2019-03-29T18:15:16.928Z,43.15
2019-03-29T18:17:47.731Z,46.00
2019-03-29T18:20:18.498Z,55.63
2019-03-29T18:22:49.233Z,49.58
2019-03-29T18:25:23.755Z,44.45
2019-03-29T18:27:55.954Z,51.83
2019-03-29T18:30:40.263Z,50.50
2019-03-29T18:33:10.615Z,43.68
2019-03-29T18:35:42.346Z,53.52
2019-03-29T18:38:12.774Z,48.08
2019-03-29T18:40:44.616Z,43.23
2019-03-29T18:43:15.265Z,37.17
2019-03-29T18:45:46.096Z,32.80
2019-03-29T18:48:16.933Z,29.87
2019-03-29T18:50:48.993Z,23.50
2019-03-29T18:53:21.261Z,30.17
2019-03-29T18:55:53.774Z,31.52
2019-03-29T18:58:27.426Z,34.60
2019-03-29T19:01:01.186Z,38.83
2019-03-29T19:03:32.889Z,40.60
2019-03-29T19:06:03.193Z,43.80
2019-03-29T19:08:34.708Z,43.25
2019-03-29T19:11:05.502Z,47.53
2019-03-29T19:13:37.668Z,56.95
2019-03-29T19:16:08.299Z,44.60
2019-03-29T19:18:41.705Z,38.33
2019-03-29T19:21:12.804Z,32.53
2019-03-29T19:23:45.072Z,40.63
2019-03-29T19:26:16.043Z,49.73
2019-03-29T19:28:49.127Z,56.45
2019-03-29T19:31:21.752Z,66.30
2019-03-29T19:33:54.181Z,65.92
2019-03-29T19:36:25.526Z,68.30
2019-03-29T19:38:55.946Z,58.50
2019-03-29T19:41:26.882Z,62.08
2019-03-29T19:43:59.770Z,60.45
2019-03-29T19:46:33.163Z,62.88
2019-03-29T19:49:05.230Z,71.00
2019-03-29T19:51:36.577Z,76.35
2019-03-29T19:54:08.355Z,67.80
2019-03-29T19:56:39.370Z,62.50
2019-03-29T19:59:10.041Z,75.65
2019-03-29T20:01:42.088Z,72.05
2019-03-29T20:04:12.498Z,79.03
2019-03-29T20:06:44.050Z,78.40
2019-03-29T20:09:15.618Z,86.97
2019-03-29T20:11:46.327Z,77.00
2019-03-29T20:14:17.677Z,85.35
2019-03-29T20:16:48.304Z,74.55
2019-03-29T20:19:23.032Z,70.75
2019-03-29T20:21:53.864Z,69.53
2019-03-29T20:24:24.222Z,64.85
2019-03-29T20:26:54.918Z,65.60
2019-03-29T20:29:28.006Z,70.05
2019-03-29T20:31:58.840Z,58.95
2019-03-29T20:34:29.938Z,63.35
2019-03-29T20:37:00.818Z,69.67
2019-03-29T20:39:31.445Z,66.80
2019-03-29T20:42:02.690Z,68.92
2019-03-29T20:44:33.219Z,62.95
2019-03-29T20:47:04.478Z,61.83
2019-03-29T20:49:36.527Z,65.45
2019-03-29T20:52:07.465Z,68.50
2019-03-29T20:54:38.632Z,66.02
2019-03-29T20:57:09.238Z,64.58
2019-03-29T20:59:40.582Z,72.95
2019-03-29T21:02:10.892Z,63.92
2019-03-29T21:04:42.770Z,54.15
2019-03-29T21:07:14.523Z,50.95
2019-03-29T21:09:46.077Z,40.60
2019-03-29T21:12:17.319Z,37.35
2019-03-29T21:14:49.181Z,34.18
2019-03-29T21:17:21.043Z,32.63
2019-03-29T21:19:51.461Z,39.55
2019-03-29T21:22:22.005Z,40.92
2019-03-29T21:24:52.715Z,34.45
2019-03-29T21:27:25.195Z,35.00
2019-03-29T21:29:55.928Z,30.90
2019-03-29T21:32:27.617Z,30.23
2019-03-29T21:34:58.518Z,36.03
2019-03-29T21:37:30.481Z,33.73
2019-03-29T21:40:05.799Z,29.72
2019-03-29T21:42:36.719Z,33.63
2019-03-29T21:45:07.594Z,27.93
2019-03-29T21:47:39.040Z,30.17
2019-03-29T21:50:10.490Z,27.45
2019-03-29T21:52:42.766Z,34.00
2019-03-29T21:55:13.194Z,28.42
2019-03-29T21:57:43.813Z,29.02
2019-03-29T22:00:16.194Z,30.45
2019-03-29T22:02:47.415Z,31.93
2019-03-29T22:05:19.596Z,33.55
2019-03-29T22:07:51.791Z,38.30
2019-03-29T22:10:22.591Z,40.90
2019-03-29T22:12:53.429Z,36.40
2019-03-29T22:15:24.364Z,37.13
2019-03-29T22:17:55.513Z,35.92
2019-03-29T22:20:26.237Z,36.65
2019-03-29T22:22:58.067Z,37.42
2019-03-29T22:25:30.572Z,48.95
2019-03-29T22:28:01.306Z,48.13
2019-03-29T22:30:31.940Z,38.00
2019-03-29T22:33:04.097Z,45.30
2019-03-29T22:35:35.686Z,43.08
2019-03-29T22:38:07.924Z,42.33
2019-03-29T22:40:41.662Z,40.20
2019-03-29T22:43:13.276Z,41.00
2019-03-29T22:45:44.612Z,47.03
2019-03-29T22:48:16.278Z,40.43
2019-03-29T22:50:47.265Z,51.42
2019-03-29T22:53:18.150Z,47.15
2019-03-29T22:55:48.890Z,51.02
2019-03-29T22:58:19.512Z,51.45
2019-03-29T23:00:52.954Z,50.30
2019-03-29T23:03:24.977Z,55.38
2019-03-29T23:05:55.281Z,48.42
2019-03-29T23:08:28.183Z,52.60
2019-03-29T23:10:59.303Z,53.30
2019-03-29T23:13:32.313Z,55.55
2019-03-29T23:16:03.739Z,45.98
2019-03-29T23:18:34.386Z,63.05
2019-03-29T23:21:06.593Z,66.07
2019-03-29T23:23:39.204Z,63.20
2019-03-29T23:26:10.169Z,64.15
2019-03-29T23:28:40.761Z,57.80
2019-03-29T23:31:12.353Z,65.45
2019-03-29T23:33:43.493Z,59.90
2019-03-29T23:36:14.800Z,63.35
2019-03-29T23:38:45.775Z,64.12
2019-03-29T23:41:16.404Z,66.75
2019-03-29T23:43:48.981Z,62.20
2019-03-29T23:46:19.818Z,69.87
2019-03-29T23:48:50.918Z,63.20
2019-03-29T23:51:23.739Z,59.77
2019-03-29T23:53:54.375Z,64.75
2019-03-29T23:56:25.216Z,58.23
2019-03-29T23:58:56.826Z,51.65
